Time;durP1;ratioP1;P1;durP2;ratioP2;P2;SDS_P1;SDS_P2;PMS_P1;PMS_P2;Temp;Humidity;BMP_temperature;BMP_pressure;BME280_temperature;BME280_humidity;BME280_pressure;Samples;Min_cycle;Max_cycle;Signal;HPM_P1;HPM_P2
2023/06/10 00:01:59;;;;;;;6.93;3.85;;;22.00;84.90;;;;;;6159672;23;20029;-86
2023/06/10 00:04:26;;;;;;;8.25;3.50;;;21.90;84.80;;;;;;6185957;23;20450;-87
2023/06/10 00:06:53;;;;;;;7.93;3.70;;;21.90;84.80;;;;;;6185289;23;20100;-86
2023/06/10 00:09:20;;;;;;;6.78;3.88;;;21.90;84.90;;;;;;6186467;23;20019;-87
2023/06/10 00:11:46;;;;;;;7.22;4.13;;;21.80;85.20;;;;;;6185587;23;20017;-86
2023/06/10 00:14:12;;;;;;;7.05;3.67;;;21.80;85.20;;;;;;6159231;23;20028;-87
2023/06/10 00:16:38;;;;;;;7.63;4.00;;;21.60;84.80;;;;;;6158967;23;20031;-86
2023/06/10 00:19:05;;;;;;;7.20;4.22;;;21.60;85.30;;;;;;6159236;23;20017;-86
2023/06/10 00:21:37;;;;;;;7.53;3.90;;;21.60;85.80;;;;;;6159147;23;20448;-86
2023/06/10 00:24:09;;;;;;;7.13;3.67;;;21.50;85.90;;;;;;6159928;23;20472;-86
2023/06/10 00:26:35;;;;;;;6.15;3.75;;;21.50;85.50;;;;;;6184221;23;20341;-86
2023/06/10 00:29:01;;;;;;;9.48;4.00;;;21.40;85.40;;;;;;6159867;23;20040;-86
2023/06/10 00:31:26;;;;;;;9.30;4.28;;;21.40;85.20;;;;;;6159600;23;20070;-86
2023/06/10 00:33:52;;;;;;;6.97;3.80;;;21.30;85.60;;;;;;6158344;23;20505;-86
2023/06/10 00:36:19;;;;;;;6.45;3.60;;;21.30;85.80;;;;;;6186095;23;20017;-86
2023/06/10 00:38:44;;;;;;;8.48;3.90;;;21.30;86.30;;;;;;6159172;23;20492;-86
2023/06/10 00:41:10;;;;;;;5.95;3.65;;;21.20;83.70;;;;;;6158589;23;20021;-86
2023/06/10 00:43:36;;;;;;;7.03;3.95;;;21.10;84.60;;;;;;6158769;23;20013;-87
2023/06/10 00:46:02;;;;;;;7.85;3.65;;;21.10;85.40;;;;;;6159505;23;20013;-86
2023/06/10 00:48:28;;;;;;;6.93;3.70;;;21.00;85.90;;;;;;6185548;23;20024;-86
2023/06/10 00:50:54;;;;;;;7.85;4.00;;;21.10;86.30;;;;;;6185007;23;20017;-86
2023/06/10 00:53:21;;;;;;;9.35;4.10;;;20.90;85.30;;;;;;6159149;23;20025;-86
2023/06/10 00:55:46;;;;;;;7.47;3.83;;;20.90;86.00;;;;;;6184569;23;20045;-86
2023/06/10 00:58:12;;;;;;;8.38;4.18;;;20.90;86.00;;;;;;6186096;23;20473;-86
2023/06/10 01:00:38;;;;;;;8.02;4.07;;;20.90;86.20;;;;;;6185751;23;20017;-86
2023/06/10 01:03:07;;;;;;;7.00;3.80;;;20.80;85.60;;;;;;6185252;23;20482;-86
2023/06/10 01:05:36;;;;;;;7.20;4.10;;;20.70;86.40;;;;;;6159125;23;20013;-86
2023/06/10 01:08:25;;;;;;;6.90;3.63;;;20.70;86.80;;;;;;6157982;23;20012;-86
2023/06/10 01:10:55;;;;;;;6.70;3.85;;;20.70;86.40;;;;;;6157741;23;20024;-86
2023/06/10 01:13:23;;;;;;;8.13;3.65;;;20.60;86.50;;;;;;6159337;23;20434;-86
2023/06/10 01:15:50;;;;;;;8.13;3.90;;;20.60;87.10;;;;;;6158097;23;20041;-86
2023/06/10 01:18:16;;;;;;;7.82;3.53;;;20.50;86.90;;;;;;6185978;23;20009;-86
2023/06/10 01:20:43;;;;;;;7.78;4.10;;;20.50;87.50;;;;;;6185679;23;20348;-85
2023/06/10 01:23:10;;;;;;;7.50;3.65;;;20.50;86.90;;;;;;6185176;23;20010;-85
2023/06/10 01:25:44;;;;;;;6.75;3.85;;;20.50;86.80;;;;;;6184728;23;20017;-85
2023/06/10 01:28:21;;;;;;;7.80;3.88;;;20.40;86.20;;;;;;6186255;23;20515;-86
2023/06/10 01:31:07;;;;;;;7.15;4.00;;;20.40;86.90;;;;;;6158361;23;20028;-85
2023/06/10 01:33:37;;;;;;;7.75;3.80;;;20.30;87.20;;;;;;6159013;23;20021;-85
2023/06/10 01:36:03;;;;;;;8.80;4.30;;;20.30;87.10;;;;;;6184665;23;20028;-86
2023/06/10 01:38:36;;;;;;;8.57;4.03;;;20.30;86.50;;;;;;6158909;23;20341;-85
2023/06/10 01:41:03;;;;;;;8.63;3.88;;;20.20;87.10;;;;;;6158657;23;20053;-85
2023/06/10 01:43:32;;;;;;;6.65;3.90;;;20.20;87.00;;;;;;6158183;23;20017;-85
2023/06/10 01:45:57;;;;;;;7.38;4.25;;;20.10;87.00;;;;;;6158663;23;20521;-85
2023/06/10 01:48:23;;;;;;;6.93;3.97;;;20.10;87.00;;;;;;6185861;23;20041;-85
2023/06/10 01:50:49;;;;;;;7.68;4.22;;;20.00;87.10;;;;;;6184516;23;20315;-85
2023/06/10 01:53:15;;;;;;;6.75;3.85;;;20.00;87.20;;;;;;6158980;23;20013;-86
2023/06/10 01:55:40;;;;;;;6.80;4.07;;;19.90;86.60;;;;;;6158184;23;20020;-85
2023/06/10 01:58:06;;;;;;;6.80;3.78;;;19.90;87.10;;;;;;6158057;23;20021;-85
2023/06/10 02:00:32;;;;;;;6.85;3.70;;;19.80;87.10;;;;;;6185234;23;20331;-85
2023/06/10 02:02:57;;;;;;;6.75;3.72;;;19.80;87.30;;;;;;6158660;23;20021;-86
2023/06/10 02:05:23;;;;;;;6.68;3.70;;;19.80;87.30;;;;;;6183918;23;20052;-85
2023/06/10 02:07:48;;;;;;;7.07;3.92;;;19.70;87.10;;;;;;6185214;23;20337;-85
2023/06/10 02:10:14;;;;;;;6.32;3.40;;;19.70;87.60;;;;;;6185718;23;20139;-85
2023/06/10 02:12:40;;;;;;;6.57;3.90;;;19.60;87.40;;;;;;6157463;23;20017;-85
2023/06/10 02:15:05;;;;;;;7.18;3.80;;;19.60;87.80;;;;;;6185499;23;20017;-85
2023/06/10 02:17:32;;;;;;;7.97;4.32;;;19.60;87.80;;;;;;6185797;23;20425;-85
2023/06/10 02:19:59;;;;;;;7.40;4.05;;;19.50;87.50;;;;;;6157773;23;20083;-85
2023/06/10 02:22:25;;;;;;;8.45;4.00;;;19.50;87.20;;;;;;6185524;23;20084;-85
2023/06/10 02:24:50;;;;;;;8.00;3.97;;;19.40;87.60;;;;;;6184957;23;20044;-85
2023/06/10 02:27:17;;;;;;;6.65;3.90;;;19.40;87.70;;;;;;6184008;23;20013;-85
2023/06/10 02:29:43;;;;;;;6.93;3.72;;;19.40;88.00;;;;;;6157868;23;20043;-85
2023/06/10 02:32:09;;;;;;;8.25;4.15;;;19.30;87.80;;;;;;6184866;23;20437;-85
2023/06/10 02:34:36;;;;;;;7.82;3.95;;;19.30;88.10;;;;;;6184559;23;20013;-85
2023/06/10 02:37:02;;;;;;;8.15;4.43;;;19.30;88.20;;;;;;6158040;23;20049;-84
2023/06/10 02:39:28;;;;;;;7.80;4.50;;;19.20;88.20;;;;;;6184777;23;20021;-84
2023/06/10 02:41:54;;;;;;;7.05;3.70;;;19.20;88.60;;;;;;6184758;23;20084;-85
2023/06/10 02:44:20;;;;;;;9.57;4.00;;;19.20;88.60;;;;;;6158550;23;20386;-85
2023/06/10 02:46:46;;;;;;;7.05;3.80;;;19.10;88.80;;;;;;6183507;23;20071;-84
2023/06/10 02:49:12;;;;;;;7.50;4.03;;;19.10;88.20;;;;;;6185124;23;20023;-84
2023/06/10 02:51:38;;;;;;;7.43;3.85;;;19.00;88.40;;;;;;6184994;23;20023;-84
2023/06/10 02:54:04;;;;;;;7.18;4.07;;;19.00;88.60;;;;;;6184410;23;20017;-85
2023/06/10 02:56:31;;;;;;;8.02;4.05;;;19.00;88.70;;;;;;6184233;23;20017;-84
2023/06/10 02:58:57;;;;;;;7.30;3.75;;;18.90;88.80;;;;;;6184659;23;20009;-85
2023/06/10 03:01:23;;;;;;;7.65;4.20;;;18.90;88.70;;;;;;6183563;23;20044;-84
2023/06/10 03:03:50;;;;;;;8.10;4.15;;;18.90;88.80;;;;;;6158279;23;20029;-84
2023/06/10 03:06:16;;;;;;;7.85;4.13;;;18.90;88.70;;;;;;6157827;23;20021;-84
2023/06/10 03:08:42;;;;;;;7.60;4.00;;;18.80;88.90;;;;;;6183578;23;20024;-84
2023/06/10 03:11:08;;;;;;;8.35;3.97;;;18.80;88.50;;;;;;6185127;23;20017;-84
2023/06/10 03:13:33;;;;;;;6.00;3.58;;;18.70;88.50;;;;;;6184535;23;20017;-84
2023/06/10 03:15:59;;;;;;;6.75;3.92;;;18.70;88.90;;;;;;6158370;23;20025;-84
2023/06/10 03:18:28;;;;;;;7.30;4.00;;;18.70;88.80;;;;;;6186918;23;20021;-83
2023/06/10 03:20:57;;;;;;;6.75;3.80;;;18.70;89.00;;;;;;6159829;23;20028;-84
2023/06/10 03:23:23;;;;;;;7.32;3.88;;;18.60;88.70;;;;;;6159676;23;20438;-83
2023/06/10 03:25:49;;;;;;;8.70;4.25;;;18.60;88.40;;;;;;6186233;23;20024;-84
2023/06/10 03:28:15;;;;;;;8.82;4.00;;;18.50;88.90;;;;;;6187072;23;20341;-83
2023/06/10 03:30:40;;;;;;;8.30;4.10;;;18.50;89.00;;;;;;6159337;23;20009;-83
2023/06/10 03:33:06;;;;;;;6.47;3.70;;;18.50;89.00;;;;;;6160587;23;20464;-84
2023/06/10 03:35:32;;;;;;;8.43;3.70;;;18.40;88.50;;;;;;6186361;23;20017;-83
2023/06/10 03:37:58;;;;;;;7.47;4.03;;;18.40;89.10;;;;;;6186616;23;20048;-83
2023/06/10 03:40:24;;;;;;;9.30;3.95;;;18.40;89.30;;;;;;6159698;23;20021;-84
2023/06/10 03:42:50;;;;;;;8.75;3.90;;;18.30;89.40;;;;;;6159158;23;20411;-84
2023/06/10 03:45:16;;;;;;;10.20;4.35;;;18.20;88.70;;;;;;6159873;23;20025;-83
2023/06/10 03:47:42;;;;;;;8.63;4.03;;;18.20;88.90;;;;;;6186452;23;20015;-83
2023/06/10 03:50:09;;;;;;;6.60;3.60;;;18.20;89.10;;;;;;6185852;23;20449;-83
2023/06/10 03:52:36;;;;;;;8.27;3.80;;;18.20;89.00;;;;;;6159798;23;20017;-83
2023/06/10 03:55:02;;;;;;;9.90;3.75;;;18.10;89.30;;;;;;6186653;23;20017;-83
2023/06/10 03:57:27;;;;;;;6.50;3.95;;;18.10;89.40;;;;;;6186133;23;20085;-83
2023/06/10 03:59:54;;;;;;;8.00;4.00;;;18.00;89.20;;;;;;6159396;23;20061;-84
2023/06/10 04:02:19;;;;;;;8.88;4.25;;;18.00;89.50;;;;;;6186220;23;20071;-82
2023/06/10 04:04:45;;;;;;;9.30;4.00;;;18.00;89.50;;;;;;6157531;23;20452;-82
2023/06/10 04:07:11;;;;;;;7.68;3.70;;;17.90;89.50;;;;;;6184821;23;20017;-82
2023/06/10 04:09:37;;;;;;;7.28;3.75;;;17.90;89.80;;;;;;6184729;23;20497;-83
2023/06/10 04:12:05;;;;;;;7.45;3.22;;;17.80;89.50;;;;;;6157640;23;20017;-83
2023/06/10 04:14:31;;;;;;;7.00;3.65;;;17.80;89.10;;;;;;6158551;23;20349;-83
2023/06/10 04:16:57;;;;;;;7.47;3.70;;;17.80;89.50;;;;;;6185073;23;20052;-82
2023/06/10 04:19:22;;;;;;;8.57;3.90;;;17.80;89.60;;;;;;6184267;23;20010;-82
2023/06/10 04:21:48;;;;;;;7.32;3.80;;;17.70;90.00;;;;;;6184957;23;20028;-83
2023/06/10 04:24:13;;;;;;;8.30;3.92;;;17.70;89.70;;;;;;6159511;23;20072;-83
2023/06/10 04:26:39;;;;;;;9.82;4.20;;;17.70;89.70;;;;;;6184134;23;20024;-83
2023/06/10 04:29:05;;;;;;;7.22;3.80;;;17.60;89.30;;;;;;6186237;23;20045;-83
2023/06/10 04:31:32;;;;;;;8.38;3.90;;;17.60;89.80;;;;;;6184771;23;20394;-83
2023/06/10 04:33:57;;;;;;;9.10;4.20;;;17.60;89.90;;;;;;6157290;23;20020;-83
2023/06/10 04:36:24;;;;;;;7.53;3.88;;;17.50;90.00;;;;;;6159017;23;20099;-83
2023/06/10 04:38:51;;;;;;;7.75;3.80;;;17.50;90.20;;;;;;6158279;23;20017;-83
2023/06/10 04:41:17;;;;;;;10.00;3.92;;;17.50;90.20;;;;;;6158864;23;20024;-83
2023/06/10 04:43:43;;;;;;;7.00;3.60;;;17.50;90.20;;;;;;6158152;23;20047;-82
2023/06/10 04:46:10;;;;;;;9.02;3.97;;;17.50;90.20;;;;;;6158233;23;20013;-83
2023/06/10 04:48:35;;;;;;;8.57;3.90;;;17.50;90.10;;;;;;6159715;23;20059;-83
2023/06/10 04:51:01;;;;;;;7.72;4.10;;;17.40;90.40;;;;;;6159077;23;20014;-82
2023/06/10 04:53:28;;;;;;;9.38;4.00;;;17.40;90.50;;;;;;6158362;23;20013;-83
2023/06/10 04:55:54;;;;;;;7.40;3.97;;;17.40;90.60;;;;;;6158520;23;20412;-83
2023/06/10 04:58:20;;;;;;;9.63;3.80;;;17.40;90.50;;;;;;6184769;23;20021;-83
2023/06/10 05:00:45;;;;;;;7.57;3.70;;;17.50;90.70;;;;;;6158412;23;20068;-83
2023/06/10 05:03:11;;;;;;;8.20;4.10;;;17.50;90.80;;;;;;6159757;23;20051;-85
2023/06/10 05:05:36;;;;;;;9.82;4.18;;;17.50;90.60;;;;;;6159968;23;20017;-83
2023/06/10 05:08:02;;;;;;;11.38;4.30;;;17.40;90.70;;;;;;6159255;23;20013;-83
2023/06/10 05:10:31;;;;;;;9.38;4.10;;;17.40;90.50;;;;;;6187695;23;20091;-83
2023/06/10 05:12:57;;;;;;;8.00;3.78;;;17.40;90.70;;;;;;6186619;23;20040;-84
2023/06/10 05:15:23;;;;;;;6.75;3.70;;;17.40;90.70;;;;;;6158811;23;20021;-84
2023/06/10 05:17:48;;;;;;;7.05;3.53;;;17.40;90.90;;;;;;6159904;23;20068;-83
2023/06/10 05:20:15;;;;;;;8.60;3.90;;;17.40;90.80;;;;;;6159132;23;20060;-83
2023/06/10 05:22:40;;;;;;;8.10;4.10;;;17.40;90.80;;;;;;6158159;23;20013;-83
2023/06/10 05:25:06;;;;;;;11.13;4.78;;;17.40;90.80;;;;;;6186059;23;20091;-82
2023/06/10 05:27:32;;;;;;;8.35;4.05;;;17.40;90.90;;;;;;6158924;23;20025;-83
2023/06/10 05:29:58;;;;;;;9.23;3.95;;;17.40;91.00;;;;;;6158545;23;20021;-84
2023/06/10 05:32:23;;;;;;;8.45;3.75;;;17.40;90.90;;;;;;6159194;23;20013;-84
2023/06/10 05:34:49;;;;;;;7.80;3.70;;;17.40;90.80;;;;;;6185511;23;20092;-84
2023/06/10 05:37:14;;;;;;;7.88;4.28;;;17.40;91.00;;;;;;6185074;23;20013;-83
2023/06/10 05:39:40;;;;;;;8.75;3.75;;;17.40;91.00;;;;;;6184570;23;20097;-84
2023/06/10 05:42:07;;;;;;;7.65;4.13;;;17.40;91.10;;;;;;6157810;23;20029;-83
2023/06/10 05:44:33;;;;;;;8.23;3.92;;;17.40;90.90;;;;;;6158892;23;20021;-84
2023/06/10 05:46:59;;;;;;;10.55;4.45;;;17.40;90.90;;;;;;6185944;23;20013;-83
2023/06/10 05:49:24;;;;;;;7.50;3.80;;;17.40;91.10;;;;;;6157677;23;20086;-84
2023/06/10 05:51:52;;;;;;;8.10;3.65;;;17.40;91.10;;;;;;6185045;23;20437;-84
2023/06/10 05:54:18;;;;;;;8.40;3.80;;;17.40;91.30;;;;;;6185561;23;20029;-84
2023/06/10 05:56:44;;;;;;;9.27;3.65;;;17.40;91.30;;;;;;6157743;23;20067;-83
2023/06/10 05:59:09;;;;;;;8.07;3.83;;;17.40;91.20;;;;;;6185690;23;20057;-83
2023/06/10 06:01:35;;;;;;;13.73;4.53;;;17.50;91.40;;;;;;6158766;23;20130;-82
2023/06/10 06:04:00;;;;;;;7.32;3.85;;;17.40;91.20;;;;;;6184834;23;20020;-83
2023/06/10 06:06:26;;;;;;;8.07;3.63;;;17.50;91.20;;;;;;6185730;23;20017;-84
2023/06/10 06:08:52;;;;;;;7.53;3.72;;;17.50;91.30;;;;;;6186672;23;20846;-90
2023/06/10 06:11:17;;;;;;;7.70;3.70;;;17.50;91.30;;;;;;6160434;23;20069;-93
2023/06/10 06:13:43;;;;;;;9.90;4.25;;;17.50;91.30;;;;;;6187259;23;20020;-92
2023/06/10 06:16:09;;;;;;;10.35;4.00;;;17.50;91.40;;;;;;6159956;23;20072;-83
2023/06/10 06:18:34;;;;;;;7.60;4.00;;;17.60;91.30;;;;;;6182850;23;20013;-83
2023/06/10 06:21:00;;;;;;;9.18;3.97;;;17.60;91.30;;;;;;6158778;23;20025;-83
2023/06/10 06:23:25;;;;;;;7.45;3.42;;;17.60;91.20;;;;;;6185607;23;20020;-82
2023/06/10 06:25:51;;;;;;;8.38;4.13;;;17.60;91.40;;;;;;6157181;23;20381;-83
2023/06/10 06:28:18;;;;;;;9.07;3.80;;;17.70;91.30;;;;;;6158922;23;20073;-83
2023/06/10 06:30:44;;;;;;;8.05;3.75;;;17.70;91.40;;;;;;6158404;23;20484;-84
2023/06/10 06:33:10;;;;;;;9.18;3.75;;;17.80;91.40;;;;;;6157287;23;20017;-83
2023/06/10 06:35:36;;;;;;;7.75;3.70;;;17.90;91.30;;;;;;6158499;23;20092;-83
2023/06/10 06:38:01;;;;;;;8.32;3.78;;;17.90;91.50;;;;;;6158732;23;20013;-83
2023/06/10 06:40:27;;;;;;;9.43;3.72;;;18.00;91.50;;;;;;6184171;23;20385;-83
2023/06/10 06:42:52;;;;;;;10.50;4.50;;;18.10;91.30;;;;;;6158249;23;20013;-83
2023/06/10 06:45:18;;;;;;;11.27;4.35;;;18.10;91.20;;;;;;6158920;23;20067;-82
2023/06/10 06:47:44;;;;;;;6.70;3.47;;;18.20;91.30;;;;;;6183449;23;20009;-84
2023/06/10 06:50:10;;;;;;;8.18;3.60;;;18.30;91.30;;;;;;6158429;23;20353;-84
2023/06/10 06:52:35;;;;;;;8.63;3.83;;;18.30;91.20;;;;;;6158854;23;20104;-84
2023/06/10 06:55:01;;;;;;;8.25;3.65;;;18.40;91.30;;;;;;6159726;23;20479;-85
2023/06/10 06:57:26;;;;;;;8.68;4.07;;;18.50;91.40;;;;;;6160115;23;20017;-84
2023/06/10 06:59:52;;;;;;;8.10;3.40;;;18.60;91.40;;;;;;6158865;23;20017;-84
2023/06/10 07:02:18;;;;;;;8.27;3.97;;;18.70;91.40;;;;;;6160273;23;20021;-84
2023/06/10 07:04:45;;;;;;;9.52;3.95;;;18.80;91.60;;;;;;6159624;23;20454;-83
2023/06/10 07:07:11;;;;;;;7.35;3.75;;;18.90;91.10;;;;;;6159197;23;20024;-84
2023/06/10 07:09:38;;;;;;;10.85;4.78;;;19.00;91.10;;;;;;6159512;23;20013;-83
2023/06/10 07:12:05;;;;;;;9.93;4.07;;;19.10;90.90;;;;;;6186931;23;20013;-86
2023/06/10 07:14:31;;;;;;;8.10;3.40;;;19.20;91.00;;;;;;6186064;23;20037;-84
2023/06/10 07:16:56;;;;;;;9.43;3.67;;;19.30;91.00;;;;;;6186413;23;20021;-82
2023/06/10 07:19:22;;;;;;;9.02;4.10;;;19.50;91.00;;;;;;6186247;23;20072;-84
2023/06/10 07:21:47;;;;;;;11.23;4.10;;;19.50;90.80;;;;;;6159231;23;20028;-85
2023/06/10 07:24:13;;;;;;;7.30;3.50;;;19.60;90.70;;;;;;6160603;23;20014;-84
2023/06/10 07:26:39;;;;;;;5.82;3.33;;;19.70;90.70;;;;;;6186125;23;20028;-84
2023/06/10 07:29:04;;;;;;;11.70;3.97;;;19.80;90.70;;;;;;6159709;23;20021;-85
2023/06/10 07:31:30;;;;;;;10.93;4.55;;;19.90;90.50;;;;;;6160167;23;20319;-85
2023/06/10 07:33:56;;;;;;;9.30;3.70;;;20.00;90.30;;;;;;6186565;23;20025;-84
2023/06/10 07:36:21;;;;;;;8.10;3.25;;;20.10;90.30;;;;;;6186041;23;20075;-85
2023/06/10 07:38:47;;;;;;;8.00;3.88;;;20.10;90.30;;;;;;6159985;23;20067;-84
2023/06/10 07:41:14;;;;;;;10.93;4.70;;;20.30;90.40;;;;;;6159669;23;20071;-84
2023/06/10 07:43:39;;;;;;;9.27;4.10;;;20.30;90.30;;;;;;6185754;23;20017;-84
2023/06/10 07:46:05;;;;;;;6.88;3.53;;;20.50;90.00;;;;;;6160056;23;20024;-85
2023/06/10 07:48:31;;;;;;;8.40;3.80;;;20.50;90.00;;;;;;6160356;23;20009;-84
2023/06/10 07:50:57;;;;;;;11.88;3.75;;;20.60;90.10;;;;;;6159301;23;20445;-83
2023/06/10 07:53:22;;;;;;;11.27;4.25;;;20.70;90.00;;;;;;6186070;23;20021;-83
2023/06/10 07:55:48;;;;;;;10.25;4.07;;;20.80;89.30;;;;;;6158871;23;20053;-84
2023/06/10 07:58:13;;;;;;;9.52;3.35;;;20.80;89.40;;;;;;6186818;23;20017;-83
2023/06/10 08:00:39;;;;;;;7.50;3.70;;;20.90;89.10;;;;;;6186471;23;20017;-83
2023/06/10 08:03:04;;;;;;;8.68;4.10;;;21.00;88.70;;;;;;6158544;23;20362;-83
2023/06/10 08:05:30;;;;;;;9.55;3.90;;;21.10;88.40;;;;;;6160551;23;20017;-83
2023/06/10 08:07:56;;;;;;;8.27;3.70;;;21.20;87.80;;;;;;6159865;23;20017;-83
2023/06/10 08:10:21;;;;;;;8.80;3.78;;;21.20;88.10;;;;;;6185715;23;20044;-83
2023/06/10 08:12:47;;;;;;;7.75;3.22;;;21.40;88.50;;;;;;6159689;23;20024;-83
2023/06/10 08:15:13;;;;;;;7.53;3.35;;;21.40;88.20;;;;;;6186824;23;20055;-83
2023/06/10 08:17:39;;;;;;;8.48;3.22;;;21.50;88.40;;;;;;6159001;23;20027;-83
2023/06/10 08:20:06;;;;;;;8.25;3.30;;;21.60;88.00;;;;;;6186662;23;20016;-83
2023/06/10 08:22:31;;;;;;;9.57;3.35;;;21.70;87.40;;;;;;6159949;23;20076;-84
2023/06/10 08:24:57;;;;;;;8.60;3.55;;;21.80;87.60;;;;;;6184793;23;20013;-83
2023/06/10 08:27:23;;;;;;;7.28;3.28;;;21.90;87.80;;;;;;6185971;23;20095;-83
2023/06/10 08:29:49;;;;;;;7.25;2.90;;;22.00;87.70;;;;;;6159798;23;20426;-84
2023/06/10 08:32:15;;;;;;;9.90;4.07;;;22.00;87.60;;;;;;6159222;23;20025;-84
2023/06/10 08:34:40;;;;;;;8.35;3.75;;;22.10;86.90;;;;;;6186252;23;20394;-84
2023/06/10 08:37:06;;;;;;;6.90;3.45;;;22.20;85.90;;;;;;6186646;23;20024;-83
2023/06/10 08:39:32;;;;;;;8.18;3.55;;;22.30;86.00;;;;;;6185766;23;20020;-83
2023/06/10 08:42:10;;;;;;;7.15;3.22;;;22.40;85.60;;;;;;6160018;23;20021;-84
2023/06/10 08:44:39;;;;;;;9.45;3.47;;;22.50;86.10;;;;;;6159124;23;20028;-84
2023/06/10 08:47:15;;;;;;;8.18;3.50;;;22.60;86.30;;;;;;6159054;23;20017;-84
2023/06/10 08:49:45;;;;;;;19.40;4.32;;;22.60;85.20;;;;;;6186067;23;20016;-83
2023/06/10 08:52:16;;;;;;;8.73;3.22;;;22.70;85.20;;;;;;6185642;23;20020;-84
2023/06/10 08:54:50;;;;;;;8.02;3.35;;;22.90;84.70;;;;;;6185940;23;20056;-83
2023/06/10 08:57:20;;;;;;;6.10;3.20;;;22.90;85.40;;;;;;6159798;23;20021;-84
2023/06/10 08:59:46;;;;;;;8.27;3.25;;;23.00;85.20;;;;;;6158259;23;20020;-84
2023/06/10 09:02:13;;;;;;;8.65;3.80;;;23.10;85.80;;;;;;6159830;23;20079;-84
2023/06/10 09:04:39;;;;;;;9.05;3.70;;;23.10;85.30;;;;;;6185861;23;20017;-84
2023/06/10 09:07:05;;;;;;;7.65;3.60;;;23.30;84.60;;;;;;6159053;23;20031;-84
2023/06/10 09:09:32;;;;;;;8.55;3.45;;;23.30;84.20;;;;;;6159666;23;20096;-84
2023/06/10 09:11:58;;;;;;;7.00;3.45;;;23.50;84.10;;;;;;6186282;23;20009;-84
2023/06/10 09:14:25;;;;;;;7.10;2.83;;;23.50;85.30;;;;;;6185055;23;20017;-84
2023/06/10 09:16:51;;;;;;;7.10;3.05;;;23.60;85.50;;;;;;6185677;23;20341;-84
2023/06/10 09:19:21;;;;;;;7.82;3.42;;;23.70;85.50;;;;;;6186045;23;20017;-84
2023/06/10 09:21:46;;;;;;;8.23;3.30;;;23.80;85.20;;;;;;6183687;23;20484;-84
2023/06/10 09:24:12;;;;;;;8.55;3.10;;;23.90;84.50;;;;;;6186113;23;20013;-84
2023/06/10 09:26:37;;;;;;;6.75;3.30;;;24.00;83.70;;;;;;6184983;23;20342;-84
2023/06/10 09:29:08;;;;;;;8.60;3.13;;;24.10;84.60;;;;;;6158453;23;20513;-84
2023/06/10 09:31:36;;;;;;;7.93;3.03;;;24.20;83.00;;;;;;6185389;23;20021;-85
2023/06/10 09:34:28;;;;;;;6.35;3.13;;;24.30;83.70;;;;;;6186370;23;20244;-84
2023/06/10 09:36:54;;;;;;;6.22;3.10;;;24.40;84.10;;;;;;6189030;23;20024;-83
2023/06/10 09:39:20;;;;;;;5.53;2.85;;;24.50;82.40;;;;;;6184746;23;20074;-85
2023/06/10 09:41:46;;;;;;;5.82;2.90;;;24.60;83.30;;;;;;6157598;23;20350;-84
2023/06/10 09:44:22;;;;;;;7.25;2.78;;;24.70;83.20;;;;;;6186478;23;20013;-86
2023/06/10 09:46:51;;;;;;;7.00;3.10;;;24.80;84.30;;;;;;6184285;23;20013;-85
2023/06/10 09:49:19;;;;;;;10.35;3.47;;;24.90;83.60;;;;;;6183948;23;20052;-82
2023/06/10 09:51:55;;;;;;;9.70;3.53;;;25.00;83.50;;;;;;6183636;23;20016;-85
2023/06/10 09:54:21;;;;;;;10.40;3.60;;;25.00;83.70;;;;;;6185374;23;20024;-85
2023/06/10 09:56:51;;;;;;;9.50;3.22;;;25.10;82.50;;;;;;6184019;23;20509;-84
2023/06/10 09:59:34;;;;;;;7.25;2.95;;;25.20;82.20;;;;;;6158874;23;20100;-85
2023/06/10 10:02:00;;;;;;;7.57;3.20;;;25.30;81.40;;;;;;6158083;23;20446;-86
2023/06/10 10:04:26;;;;;;;10.20;3.30;;;25.30;80.90;;;;;;6184419;23;20371;-86
2023/06/10 10:06:52;;;;;;;11.68;3.70;;;25.40;81.00;;;;;;6184846;23;20778;-86
2023/06/10 10:09:18;;;;;;;6.75;3.40;;;25.50;80.30;;;;;;6158539;23;20032;-84
2023/06/10 10:11:44;;;;;;;8.25;3.17;;;25.60;80.90;;;;;;6188990;23;20505;-86
2023/06/10 10:14:11;;;;;;;9.18;3.03;;;25.70;81.70;;;;;;6158800;23;20342;-86
2023/06/10 10:16:40;;;;;;;7.88;3.28;;;25.70;81.10;;;;;;6157693;23;20028;-87
2023/06/10 10:19:11;;;;;;;7.03;3.15;;;25.80;78.40;;;;;;6158648;23;20500;-86
2023/06/10 10:21:47;;;;;;;7.70;3.20;;;25.90;80.80;;;;;;6184638;23;20353;-86
2023/06/10 10:24:17;;;;;;;6.18;2.80;;;26.00;81.30;;;;;;6157921;23;20477;-87
2023/06/10 10:26:45;;;;;;;8.25;2.97;;;26.00;81.40;;;;;;6157848;23;20068;-87
2023/06/10 10:29:27;;;;;;;7.32;3.13;;;26.10;79.60;;;;;;6185351;23;20013;-86
2023/06/10 10:31:56;;;;;;;8.60;3.00;;;26.20;77.80;;;;;;6184022;23;20461;-85
2023/06/10 10:34:26;;;;;;;6.00;2.90;;;26.20;74.50;;;;;;6185718;23;20338;-85
2023/06/10 10:36:52;;;;;;;8.13;2.80;;;26.30;76.10;;;;;;6158333;23;20021;-85
2023/06/10 10:39:18;;;;;;;5.53;2.88;;;26.40;78.60;;;;;;6158194;23;20024;-85
2023/06/10 10:41:45;;;;;;;7.80;2.88;;;26.40;78.20;;;;;;6158359;23;20021;-86
2023/06/10 10:44:11;;;;;;;7.00;2.65;;;26.50;79.20;;;;;;6158885;23;20017;-85
2023/06/10 10:47:02;;;;;;;4.78;2.67;;;26.50;72.90;;;;;;6157327;23;20017;-86
2023/06/10 10:49:28;;;;;;;6.43;3.10;;;26.60;78.60;;;;;;6185033;23;20014;-85
2023/06/10 10:52:00;;;;;;;6.05;2.65;;;26.70;79.30;;;;;;6184073;23;20021;-84
2023/06/10 10:54:35;;;;;;;5.82;2.78;;;26.80;79.80;;;;;;6185113;23;20049;-85
2023/06/10 10:57:13;;;;;;;7.22;2.70;;;26.80;78.90;;;;;;6157756;23;20028;-84
2023/06/10 11:00:04;;;;;;;5.57;2.70;;;26.90;79.90;;;;;;6157592;23;20067;-84
2023/06/10 11:02:35;;;;;;;6.18;3.10;;;27.00;79.70;;;;;;6158913;23;20052;-84
2023/06/10 11:05:02;;;;;;;6.70;2.92;;;27.00;79.80;;;;;;6158679;23;20013;-86
2023/06/10 11:07:31;;;;;;;7.88;2.70;;;27.10;78.00;;;;;;6184455;23;20055;-86
2023/06/10 11:10:11;;;;;;;5.57;2.78;;;27.20;76.30;;;;;;6158502;23;20041;-85
2023/06/10 11:12:45;;;;;;;5.35;2.78;;;27.30;77.40;;;;;;6157930;23;20096;-85
2023/06/10 11:15:12;;;;;;;6.80;3.08;;;27.30;76.30;;;;;;6185220;23;20434;-85
2023/06/10 11:17:57;;;;;;;6.10;2.90;;;27.40;72.60;;;;;;6184181;23;20017;-85
2023/06/10 11:20:42;;;;;;;5.57;2.70;;;27.40;75.70;;;;;;6183695;23;20013;-86
2023/06/10 11:23:07;;;;;;;5.93;2.60;;;27.50;68.80;;;;;;6184829;23;20103;-86
2023/06/10 11:25:40;;;;;;;8.32;2.67;;;27.60;74.20;;;;;;6157935;23;20021;-86
2023/06/10 11:28:19;;;;;;;6.43;2.67;;;27.60;76.40;;;;;;6183989;23;20028;-86
2023/06/10 11:30:45;;;;;;;6.07;2.53;;;27.70;77.70;;;;;;6158075;23;20013;-85
2023/06/10 11:33:16;;;;;;;6.47;2.58;;;27.80;77.10;;;;;;6184598;23;20014;-86
2023/06/10 11:35:43;;;;;;;6.60;2.60;;;27.80;76.30;;;;;;6183134;23;20024;-83
2023/06/10 11:38:08;;;;;;;4.55;2.40;;;27.90;76.20;;;;;;6185064;23;20465;-84
2023/06/10 11:40:36;;;;;;;4.95;2.22;;;27.90;63.70;;;;;;6159094;23;20077;-87
2023/06/10 11:43:04;;;;;;;5.75;2.55;;;28.00;73.00;;;;;;6184107;23;20036;-87
2023/06/10 11:45:29;;;;;;;5.00;2.30;;;28.10;76.20;;;;;;6185578;23;20023;-87
2023/06/10 11:47:59;;;;;;;4.22;2.42;;;28.10;76.50;;;;;;6183598;23;20040;-85
2023/06/10 11:50:33;;;;;;;4.90;2.45;;;28.20;77.00;;;;;;6186394;23;20016;-85
2023/06/10 11:52:59;;;;;;;5.75;2.45;;;28.20;64.00;;;;;;6186318;23;20045;-86
2023/06/10 11:55:26;;;;;;;4.32;2.28;;;28.30;72.30;;;;;;6185432;23;20013;-86
2023/06/10 11:57:57;;;;;;;5.47;2.47;;;28.40;73.60;;;;;;6185845;23;20464;-85
2023/06/10 12:00:23;;;;;;;5.60;2.20;;;28.40;71.60;;;;;;6186011;23;20013;-84
2023/06/10 12:02:57;;;;;;;4.75;2.40;;;28.50;74.50;;;;;;6158176;23;20025;-84
2023/06/10 12:05:23;;;;;;;6.15;2.40;;;28.60;75.30;;;;;;6159807;23;20013;-85
2023/06/10 12:07:48;;;;;;;6.97;2.67;;;28.70;68.20;;;;;;6186247;23;20451;-87
2023/06/10 12:10:15;;;;;;;7.00;2.65;;;28.70;69.30;;;;;;6159485;23;20121;-85
2023/06/10 12:12:41;;;;;;;4.88;2.50;;;28.70;64.10;;;;;;6185676;23;20456;-84
2023/06/10 12:15:07;;;;;;;6.05;2.60;;;28.80;70.90;;;;;;6186386;23;20017;-85
2023/06/10 12:17:33;;;;;;;5.22;2.40;;;28.80;73.70;;;;;;6185433;23;20009;-87
2023/06/10 12:20:01;;;;;;;5.03;2.40;;;28.80;73.60;;;;;;6186066;23;20527;-86
2023/06/10 12:22:35;;;;;;;5.10;2.38;;;28.90;74.20;;;;;;6186353;23;20013;-88
2023/06/10 12:25:03;;;;;;;4.82;2.50;;;29.00;74.30;;;;;;6184771;23;20055;-84
2023/06/10 12:27:30;;;;;;;7.53;2.50;;;29.00;71.50;;;;;;6159855;23;20450;-83
2023/06/10 12:30:00;;;;;;;4.07;2.20;;;29.10;71.10;;;;;;6159258;23;20017;-86
2023/06/10 12:32:43;;;;;;;4.75;2.28;;;29.20;73.80;;;;;;6159981;23;20021;-85
2023/06/10 12:35:17;;;;;;;4.57;2.30;;;29.20;72.00;;;;;;6159539;23;20088;-86
2023/06/10 12:37:59;;;;;;;5.32;2.50;;;29.30;73.70;;;;;;6185016;23;20017;-86
2023/06/10 12:40:31;;;;;;;4.40;2.30;;;29.30;71.10;;;;;;6186407;23;20327;-87
2023/06/10 12:42:57;;;;;;;5.53;2.33;;;29.30;68.90;;;;;;6185713;23;20024;-86
2023/06/10 12:45:30;;;;;;;4.07;2.10;;;29.40;69.40;;;;;;6185471;23;20084;-86
2023/06/10 12:48:17;;;;;;;7.07;2.78;;;29.40;71.60;;;;;;6159297;23;20024;-86